createdAt,value
2022-11-25T00:02:48.311Z,100738.88
2022-11-25T00:05:51.302Z,100738.88
2022-11-25T00:08:57.708Z,100729.44
2022-11-25T00:12:00.656Z,100735.34
2022-11-25T00:15:04.701Z,100745.50
2022-11-25T00:18:09.125Z,100737.78
2022-11-25T00:21:15.153Z,100733.53
2022-11-25T00:24:20.492Z,100734.38
2022-11-25T00:27:23.740Z,100724.69
2022-11-25T00:30:26.746Z,100726.38
2022-11-25T00:33:31.203Z,100721.16
2022-11-25T00:36:37.427Z,100726.22
2022-11-25T00:39:40.430Z,100725.31
2022-11-25T00:43:00.975Z,100725.31
2022-11-25T00:46:03.953Z,100731.63
2022-11-25T00:49:08.606Z,100731.63
2022-11-25T00:52:16.742Z,100724.56
2022-11-25T00:55:19.742Z,100731.50
2022-11-25T00:58:22.763Z,100738.34
2022-11-25T01:01:27.440Z,100742.50
2022-11-25T01:04:31.820Z,100739.75
2022-11-25T01:07:34.802Z,100724.97
2022-11-25T01:10:37.754Z,100735.16
2022-11-25T01:13:41.887Z,100733.41
2022-11-25T01:16:44.936Z,100725.88
2022-11-25T01:19:49.346Z,100728.25
2022-11-25T01:22:53.358Z,100733.47
2022-11-25T01:25:56.389Z,100730.75
2022-11-25T01:29:03.635Z,100732.31
2022-11-25T01:32:09.868Z,100725.38
2022-11-25T01:35:16.428Z,100725.28
2022-11-25T01:38:19.400Z,100718.53
2022-11-25T01:41:24.243Z,100718.66
2022-11-25T01:44:30.315Z,100711.00
2022-11-25T01:47:34.366Z,100709.34
2022-11-25T01:50:39.390Z,100717.06
2022-11-25T01:53:42.506Z,100706.69
2022-11-25T01:56:53.073Z,100701.44
2022-11-25T02:00:00.854Z,100706.84
2022-11-25T02:03:04.493Z,100707.16
2022-11-25T02:06:13.611Z,100698.78
2022-11-25T02:09:17.576Z,100701.09
2022-11-25T02:12:22.766Z,100700.53
2022-11-25T02:15:26.833Z,100689.97
2022-11-25T02:18:31.374Z,100689.84
2022-11-25T02:21:44.914Z,100688.94
2022-11-25T02:24:49.797Z,100690.69
2022-11-25T02:27:58.721Z,100698.41
2022-11-25T02:31:01.901Z,100684.06
2022-11-25T02:34:05.213Z,100690.03
2022-11-25T02:37:11.110Z,100690.09
2022-11-25T02:40:15.400Z,100684.97
2022-11-25T02:43:19.840Z,100677.09
2022-11-25T02:46:25.872Z,100683.91
2022-11-25T02:49:28.900Z,100701.81
2022-11-25T02:52:31.887Z,100695.69
2022-11-25T02:55:36.019Z,100686.09
2022-11-25T02:58:41.289Z,100687.00
2022-11-25T03:01:44.993Z,100687.28
2022-11-25T03:04:47.961Z,100698.53
2022-11-25T03:07:51.434Z,100700.97
2022-11-25T03:10:59.433Z,100699.88
2022-11-25T03:14:05.395Z,100702.38
2022-11-25T03:17:09.887Z,100703.16
2022-11-25T03:20:15.183Z,100709.34
2022-11-25T03:23:19.516Z,100706.06
2022-11-25T03:26:22.894Z,100714.69
2022-11-25T03:29:29.728Z,100710.38
2022-11-25T03:32:32.872Z,100717.91
2022-11-25T03:35:40.523Z,100722.28
2022-11-25T03:38:45.859Z,100718.19
2022-11-25T03:41:50.999Z,100719.31
2022-11-25T03:44:57.791Z,100719.84
2022-11-25T03:48:02.870Z,100711.22
2022-11-25T03:51:06.425Z,100721.75
2022-11-25T03:54:13.196Z,100707.72
2022-11-25T03:57:36.588Z,100708.38
2022-11-25T04:00:40.999Z,100712.63
2022-11-25T04:03:43.968Z,100698.72
2022-11-25T04:06:49.867Z,100716.09
2022-11-25T04:09:54.126Z,100712.75
2022-11-25T04:13:00.997Z,100722.09
2022-11-25T04:16:24.550Z,100716.25
2022-11-25T04:19:28.998Z,100712.69
2022-11-25T04:22:34.820Z,100715.16
2022-11-25T04:25:41.346Z,100714.25
2022-11-25T04:28:49.357Z,100716.69
2022-11-25T04:31:53.677Z,100714.16
2022-11-25T04:34:56.753Z,100726.97
2022-11-25T04:37:59.951Z,100734.44
2022-11-25T04:41:03.364Z,100737.09
2022-11-25T04:44:11.797Z,100735.97
2022-11-25T04:47:16.911Z,100736.84
2022-11-25T04:50:23.984Z,100737.16
2022-11-25T04:53:37.627Z,100732.59
2022-11-25T04:56:42.702Z,100749.72
2022-11-25T04:59:46.827Z,100746.50
2022-11-25T05:02:53.540Z,100744.53
2022-11-25T05:05:57.743Z,100742.69
2022-11-25T05:09:00.920Z,100735.97
2022-11-25T05:12:04.904Z,100729.00
2022-11-25T05:15:10.036Z,100729.75
2022-11-25T05:18:16.315Z,100724.66
2022-11-25T05:21:21.910Z,100726.41
2022-11-25T05:24:25.376Z,100736.66
2022-11-25T05:27:29.298Z,100733.16
2022-11-25T05:30:35.672Z,100732.31
2022-11-25T05:33:39.953Z,100738.19
2022-11-25T05:36:45.535Z,100744.28
2022-11-25T05:39:48.943Z,100740.69
2022-11-25T05:42:53.368Z,100752.56
2022-11-25T05:45:56.883Z,100756.94
2022-11-25T05:49:02.171Z,100756.16
2022-11-25T05:52:05.296Z,100757.81
2022-11-25T05:55:15.422Z,100747.41
2022-11-25T05:58:23.427Z,100751.72
2022-11-25T06:01:29.532Z,100756.03
2022-11-25T06:04:34.202Z,100761.19
2022-11-25T06:07:38.622Z,100761.47
2022-11-25T06:10:42.615Z,100750.16
2022-11-25T06:13:49.459Z,100759.38
2022-11-25T06:16:53.548Z,100756.88
2022-11-25T06:20:02.898Z,100762.97
2022-11-25T06:23:07.449Z,100751.16
2022-11-25T06:26:16.123Z,100757.06
2022-11-25T06:29:19.211Z,100759.91
2022-11-25T06:32:25.939Z,100751.53
2022-11-25T06:35:37.054Z,100749.84
2022-11-25T06:38:40.443Z,100752.47
2022-11-25T06:41:43.751Z,100745.81
2022-11-25T06:44:46.684Z,100751.91
2022-11-25T06:47:49.925Z,100749.41
2022-11-25T06:51:03.124Z,100762.47
2022-11-25T06:54:07.223Z,100766.78
2022-11-25T06:57:10.889Z,100778.53
2022-11-25T07:00:15.283Z,100773.91
2022-11-25T07:03:18.306Z,100779.72
2022-11-25T07:06:23.486Z,100781.50
2022-11-25T07:09:26.866Z,100785.88
2022-11-25T07:12:32.212Z,100778.94
2022-11-25T07:15:38.403Z,100788.34
2022-11-25T07:18:42.330Z,100798.78
2022-11-25T07:21:47.466Z,100798.66
2022-11-25T07:24:50.996Z,100809.84
2022-11-25T07:27:54.232Z,100806.56
2022-11-25T07:34:22.360Z,100820.38
2022-11-25T07:37:27.647Z,100832.13
2022-11-25T07:40:31.141Z,100831.66
2022-11-25T07:43:34.949Z,100838.78
2022-11-25T07:46:40.849Z,100836.50
2022-11-25T07:49:43.870Z,100836.63
2022-11-25T07:52:48.396Z,100831.47
2022-11-25T07:55:51.384Z,100828.91
2022-11-25T07:58:54.781Z,100813.47
2022-11-25T08:01:57.939Z,100816.88
2022-11-25T08:05:00.945Z,100819.44
2022-11-25T08:08:06.488Z,100814.97
2022-11-25T08:11:12.051Z,100809.91
2022-11-25T08:14:15.861Z,100803.75
2022-11-25T08:17:18.859Z,100803.56
2022-11-25T08:20:22.265Z,100819.88
2022-11-25T08:23:26.539Z,100812.72
2022-11-25T08:26:31.710Z,100819.03
2022-11-25T08:29:34.868Z,100811.13
2022-11-25T08:32:39.324Z,100816.19
2022-11-25T08:35:42.557Z,100817.81
2022-11-25T08:38:49.795Z,100815.88
2022-11-25T08:41:52.760Z,100811.22
2022-11-25T08:44:57.059Z,100816.84
2022-11-25T08:48:00.012Z,100810.78
2022-11-25T08:51:03.262Z,100816.94
2022-11-25T08:54:09.619Z,100817.66
2022-11-25T08:57:12.947Z,100815.56
2022-11-25T09:00:17.515Z,100815.81
2022-11-25T09:03:20.526Z,100815.44
2022-11-25T09:06:25.741Z,100816.00
2022-11-25T09:09:30.048Z,100812.31
2022-11-25T09:12:33.031Z,100814.53
2022-11-25T09:15:35.992Z,100815.38
2022-11-25T09:18:39.911Z,100821.16
2022-11-25T09:21:44.468Z,100825.75
2022-11-25T09:24:48.925Z,100831.53
2022-11-25T09:27:51.976Z,100820.50
2022-11-25T09:30:55.109Z,100817.09
2022-11-25T09:33:58.162Z,100812.66
2022-11-25T09:37:02.222Z,100808.72
2022-11-25T09:40:15.201Z,100811.16
2022-11-25T09:43:54.316Z,100809.22
2022-11-25T09:47:06.850Z,100803.94
2022-11-25T09:50:19.949Z,100805.84
2022-11-25T09:53:38.688Z,100798.59
2022-11-25T09:56:48.389Z,100794.78
2022-11-25T10:00:06.128Z,100794.22
2022-11-25T10:03:30.936Z,100800.22
2022-11-25T10:06:42.439Z,100791.84
2022-11-25T10:09:45.855Z,100796.28
2022-11-25T10:12:52.588Z,100788.00
2022-11-25T10:15:59.145Z,100795.03
2022-11-25T10:19:08.425Z,100794.38
2022-11-25T10:22:24.229Z,100785.63
2022-11-25T10:25:31.480Z,100783.59
2022-11-25T10:28:36.508Z,100787.53
2022-11-25T10:31:40.517Z,100784.88
2022-11-25T10:34:49.771Z,100783.84
2022-11-25T10:37:57.376Z,100787.78
2022-11-25T10:41:01.425Z,100784.59
2022-11-25T10:44:27.768Z,100782.78
2022-11-25T10:47:37.848Z,100776.66
2022-11-25T10:50:56.373Z,100783.47
2022-11-25T10:54:27.313Z,100786.06
2022-11-25T10:57:31.027Z,100778.59
2022-11-25T11:00:38.753Z,100782.16
2022-11-25T11:03:42.666Z,100782.03
2022-11-25T11:06:48.758Z,100793.38
2022-11-25T11:09:52.352Z,100799.03
2022-11-25T11:13:01.292Z,100800.06
2022-11-25T11:16:22.893Z,100795.66
2022-11-25T11:19:29.173Z,100791.41
2022-11-25T11:22:36.745Z,100789.75
2022-11-25T11:25:44.652Z,100778.50
2022-11-25T11:28:47.606Z,100780.75
2022-11-25T11:32:01.682Z,100781.63
2022-11-25T11:35:14.341Z,100782.13
2022-11-25T11:38:37.693Z,100785.22
2022-11-25T11:41:46.435Z,100786.13
2022-11-25T11:45:07.898Z,100774.78
2022-11-25T11:48:28.399Z,100771.78
2022-11-25T11:51:40.503Z,100771.50
2022-11-25T11:54:47.740Z,100772.22
2022-11-25T11:58:00.422Z,100775.72
2022-11-25T12:01:20.777Z,100768.84
2022-11-25T12:04:30.427Z,100770.16
2022-11-25T12:07:37.922Z,100766.94
2022-11-25T12:10:44.867Z,100767.88
2022-11-25T12:14:00.804Z,100757.06
2022-11-25T12:17:14.630Z,100760.75
2022-11-25T12:20:33.430Z,100761.19
2022-11-25T12:23:46.154Z,100753.44
2022-11-25T12:26:58.120Z,100763.53
2022-11-25T12:30:07.271Z,100763.44
2022-11-25T12:33:17.858Z,100758.28
2022-11-25T12:36:32.833Z,100756.25
2022-11-25T12:39:44.176Z,100758.00
2022-11-25T12:42:50.009Z,100752.78
2022-11-25T12:46:06.320Z,100764.25
2022-11-25T12:49:20.235Z,100754.88
2022-11-25T12:52:44.573Z,100764.25
2022-11-25T12:55:47.563Z,100772.53
2022-11-25T12:59:03.830Z,100768.47
2022-11-25T13:02:37.158Z,100768.78
2022-11-25T13:06:17.203Z,100769.44
2022-11-25T13:09:56.366Z,100764.44
2022-11-25T13:13:22.151Z,100766.47
2022-11-25T13:16:27.037Z,100769.50
2022-11-25T13:19:33.631Z,100777.16
2022-11-25T13:22:36.680Z,100778.00
2022-11-25T13:25:44.344Z,100783.94
2022-11-25T13:28:47.287Z,100786.16
2022-11-25T13:31:59.636Z,100792.91
2022-11-25T13:35:36.442Z,100793.19
2022-11-25T13:39:00.510Z,100797.34
2022-11-25T13:42:16.546Z,100795.81
2022-11-25T13:45:29.130Z,100807.59
2022-11-25T13:48:37.031Z,100810.75
2022-11-25T13:51:50.769Z,100809.84
2022-11-25T13:54:55.967Z,100804.50
2022-11-25T13:58:14.627Z,100809.84
2022-11-25T14:01:30.280Z,100814.91
2022-11-25T14:04:46.737Z,100812.88
2022-11-25T14:08:07.846Z,100809.53
2022-11-25T14:11:40.000Z,100812.13
2022-11-25T14:15:06.071Z,100812.13
2022-11-25T14:19:21.661Z,100816.38
2022-11-25T14:22:24.607Z,100816.06
2022-11-25T14:25:31.684Z,100827.94
2022-11-25T14:28:41.166Z,100826.88
2022-11-25T14:31:51.445Z,100826.09
2022-11-25T14:35:01.535Z,100833.84
2022-11-25T14:38:10.670Z,100827.84
2022-11-25T14:41:20.396Z,100835.50
2022-11-25T14:44:28.851Z,100829.59
2022-11-25T14:47:38.606Z,100830.09
2022-11-25T14:50:53.711Z,100841.44
2022-11-25T14:53:57.741Z,100847.22
2022-11-25T14:57:01.179Z,100857.25
2022-11-25T15:00:07.974Z,100850.97
2022-11-25T15:03:21.088Z,100861.09
2022-11-25T15:06:24.088Z,100855.00
2022-11-25T15:09:31.511Z,100859.25
2022-11-25T15:12:34.801Z,100866.69
2022-11-25T15:15:37.949Z,100866.69
2022-11-25T15:18:51.325Z,100865.03
2022-11-25T15:22:23.149Z,100869.41
2022-11-25T15:25:25.809Z,100873.72
2022-11-25T15:28:34.824Z,100870.22
2022-11-25T15:31:41.491Z,100873.72
2022-11-25T15:34:47.511Z,100875.50
2022-11-25T15:37:50.971Z,100882.63
2022-11-25T15:40:57.311Z,100881.13
2022-11-25T15:44:02.927Z,100878.59
2022-11-25T15:47:15.537Z,100872.53
2022-11-25T15:50:24.108Z,100874.84
2022-11-25T15:53:33.147Z,100874.34
2022-11-25T15:56:40.587Z,100873.63
2022-11-25T15:59:50.586Z,100873.59
2022-11-25T16:02:55.746Z,100876.09
2022-11-25T16:06:01.855Z,100876.19
2022-11-25T16:09:21.603Z,100879.72
2022-11-25T16:12:31.082Z,100881.38
2022-11-25T16:15:56.615Z,100884.59
2022-11-25T16:19:18.601Z,100883.84
2022-11-25T16:22:23.668Z,100893.25
2022-11-25T16:25:27.185Z,100887.25
2022-11-25T16:28:30.793Z,100894.25
2022-11-25T16:31:33.803Z,100894.81
2022-11-25T16:34:36.987Z,100899.75
2022-11-25T16:41:12.669Z,100892.13
2022-11-25T16:44:21.169Z,100891.31
2022-11-25T16:47:26.154Z,100903.59
2022-11-25T16:50:29.141Z,100900.09
2022-11-25T16:53:33.418Z,100896.75
2022-11-25T16:56:42.774Z,100898.31
2022-11-25T16:59:47.304Z,100900.09
2022-11-25T17:02:50.367Z,100907.09
2022-11-25T17:05:55.148Z,100905.28
2022-11-25T17:08:59.462Z,100911.97
2022-11-25T17:12:02.675Z,100909.31
2022-11-25T17:15:09.741Z,100909.56
2022-11-25T17:18:16.835Z,100917.31
2022-11-25T17:21:19.884Z,100922.31
2022-11-25T17:24:25.916Z,100915.47
2022-11-25T17:27:33.175Z,100915.47
2022-11-25T17:30:41.511Z,100921.41
2022-11-25T17:33:55.813Z,100924.97
2022-11-25T17:37:00.337Z,100924.13
2022-11-25T17:40:06.334Z,100932.72
2022-11-25T17:43:15.447Z,100923.97
2022-11-25T17:46:19.556Z,100937.69
2022-11-25T17:49:22.901Z,100939.19
2022-11-25T17:52:25.921Z,100939.16
2022-11-25T17:55:30.852Z,100941.66
2022-11-25T17:58:37.516Z,100941.56
2022-11-25T18:01:40.535Z,100949.41
2022-11-25T18:04:43.576Z,100954.56
2022-11-25T18:07:46.833Z,100952.66
2022-11-25T18:10:51.287Z,100963.75
2022-11-25T18:13:55.732Z,100959.41
2022-11-25T18:17:02.339Z,100957.06
2022-11-25T18:20:17.919Z,100962.22
2022-11-25T18:23:21.082Z,100970.09
2022-11-25T18:26:25.570Z,100959.75
2022-11-25T18:29:28.787Z,100966.63
2022-11-25T18:32:31.705Z,100970.09
2022-11-25T18:35:36.848Z,100972.63
2022-11-25T18:38:40.559Z,100972.63
2022-11-25T18:41:46.544Z,100969.25
2022-11-25T18:44:51.935Z,100983.09
2022-11-25T18:47:55.347Z,100985.03
2022-11-25T18:50:58.282Z,100982.38
2022-11-25T18:54:01.214Z,100994.53
2022-11-25T18:57:05.903Z,100992.72
2022-11-25T19:00:32.844Z,100999.53
2022-11-25T19:03:36.458Z,100997.66
2022-11-25T19:06:41.531Z,100996.78
2022-11-25T19:09:44.587Z,101000.38
2022-11-25T19:12:53.207Z,101005.44
2022-11-25T19:15:57.531Z,101007.84
2022-11-25T19:19:05.513Z,101009.50
2022-11-25T19:22:11.901Z,101014.00
2022-11-25T19:25:15.331Z,101020.88
2022-11-25T19:28:20.224Z,101022.56
2022-11-25T19:31:23.640Z,101021.72
2022-11-25T19:34:32.514Z,101032.84
2022-11-25T19:37:39.072Z,101037.03
2022-11-25T19:40:42.192Z,101033.69
2022-11-25T19:43:47.026Z,101043.34
2022-11-25T19:50:23.279Z,101054.59
2022-11-25T19:53:33.744Z,101059.78
2022-11-25T19:56:47.933Z,101064.22
2022-11-25T19:59:53.074Z,101067.66
2022-11-25T20:02:57.208Z,101074.38
2022-11-25T20:06:00.386Z,101082.91
2022-11-25T20:09:07.894Z,101081.13
2022-11-25T20:12:22.806Z,101083.78
2022-11-25T20:15:27.971Z,101086.97
2022-11-25T20:18:31.289Z,101089.44
2022-11-25T20:21:38.547Z,101100.72
2022-11-25T20:24:43.542Z,101104.09
2022-11-25T20:27:46.659Z,101101.44
2022-11-25T20:30:52.177Z,101107.25
2022-11-25T20:33:55.352Z,101107.53
2022-11-25T20:36:58.462Z,101106.41
2022-11-25T20:40:02.435Z,101111.50
2022-11-25T20:43:05.623Z,101119.34
2022-11-25T20:46:17.963Z,101124.31
2022-11-25T20:49:25.746Z,101124.34
2022-11-25T20:52:32.397Z,101122.69
2022-11-25T20:55:35.518Z,101129.53
2022-11-25T20:58:39.549Z,101134.84
2022-11-25T21:01:44.944Z,101144.28
2022-11-25T21:04:48.062Z,101140.84
2022-11-25T21:07:51.998Z,101146.78
2022-11-25T21:10:57.249Z,101149.66
2022-11-25T21:14:01.915Z,101148.81
2022-11-25T21:17:06.820Z,101152.94
2022-11-25T21:20:13.656Z,101155.53
2022-11-25T21:23:22.217Z,101154.63
2022-11-25T21:26:27.613Z,101162.38
2022-11-25T21:29:32.293Z,101160.69
2022-11-25T21:32:36.695Z,101170.41
2022-11-25T21:35:41.709Z,101174.47
2022-11-25T21:38:45.386Z,101176.91
2022-11-25T21:41:48.379Z,101174.13
2022-11-25T21:44:53.122Z,101176.59
2022-11-25T21:47:57.521Z,101170.63
2022-11-25T21:51:01.335Z,101174.91
2022-11-25T21:54:05.063Z,101179.16
2022-11-25T21:57:19.435Z,101179.16
2022-11-25T22:00:25.981Z,101185.25
2022-11-25T22:03:35.173Z,101182.50
2022-11-25T22:06:38.545Z,101183.44
2022-11-25T22:09:43.754Z,101191.91
2022-11-25T22:12:48.157Z,101197.75
2022-11-25T22:15:56.272Z,101205.78
2022-11-25T22:19:00.965Z,101198.75
2022-11-25T22:22:03.900Z,101206.44
2022-11-25T22:25:10.018Z,101211.66
2022-11-25T22:28:18.290Z,101210.03
2022-11-25T22:31:22.202Z,101212.63
2022-11-25T22:34:29.977Z,101226.34
2022-11-25T22:37:34.093Z,101222.84
2022-11-25T22:40:38.657Z,101230.63
2022-11-25T22:43:50.680Z,101233.97
2022-11-25T22:46:54.533Z,101231.25
2022-11-25T22:49:59.667Z,101239.94
2022-11-25T22:53:03.003Z,101237.97
2022-11-25T22:56:06.556Z,101250.75
2022-11-25T22:59:10.380Z,101243.66
2022-11-25T23:02:20.772Z,101235.41
2022-11-25T23:05:32.492Z,101245.84
2022-11-25T23:08:36.895Z,101238.38
2022-11-25T23:11:41.161Z,101232.47
2022-11-25T23:14:45.267Z,101232.47
2022-11-25T23:17:51.588Z,101234.84
2022-11-25T23:20:56.262Z,101239.06
2022-11-25T23:23:59.766Z,101241.72
2022-11-25T23:27:02.798Z,101236.53
2022-11-25T23:30:09.548Z,101246.00
2022-11-25T23:33:22.946Z,101253.78
2022-11-25T23:36:31.239Z,101252.78
2022-11-25T23:39:34.367Z,101263.84
2022-11-25T23:42:37.737Z,101262.00
2022-11-25T23:45:48.307Z,101254.16
2022-11-25T23:48:56.012Z,101261.88
2022-11-25T23:52:07.988Z,101261.88
2022-11-25T23:55:16.679Z,101258.41
2022-11-25T23:58:23.483Z,101256.00
